WSAP/QPG METAR and TAF weather

Enter ICAO airport designator
Station Type Date Time Source
WSAP METAR 2019/12/08 11:00 UTC NOAA

WSAP 081100Z 04010KT 9999 FEW016 SCT300 28/24 Q1010


Station Type Date Time Source
WSAP Decoded METAR 2019/12/08 11:00 UTC NOAA

Singapore / Paya Lebar, Singapore (WSAP) 01-22N 103-55E 32M
Dec 08, 2019 - 06:00 AM EST / 2019.12.08 1100 UTC
Wind: from the NE (040 degrees) at 12 MPH (10 KT):0
Visibility: greater than 7 mile(s):0
Sky conditions: partly cloudy
Temperature: 82 F (28 C)
Dew Point: 75 F (24 C)
Relative Humidity: 78%
Pressure (altimeter): 29.83 in. Hg (1010 hPa)
ob: WSAP 081100Z 04010KT 9999 FEW016 SCT300 28/24 Q1010
cycle: 11

Station Type Date Time Source
WSAP TAF 2019/12/08 12:09 UTC NOAA

TAF WSAP 081100Z 0812/0918 03014KT 9999 FEW015 SCT020
TEMPO 0822/0903 03015G25KT 3000 TSRA FEW015CB BKN015

Example: see airport list